createdAt,value
2023-03-02T00:00:30.325Z,123.75
2023-03-02T00:01:30.328Z,123.75
2023-03-02T00:02:30.343Z,123.75
2023-03-02T00:03:30.338Z,123.75
2023-03-02T00:04:30.301Z,123.75
2023-03-02T00:05:30.287Z,123.75
2023-03-02T00:06:30.708Z,123.75
2023-03-02T00:07:30.280Z,123.75
2023-03-02T00:08:30.247Z,123.75
2023-03-02T00:09:30.257Z,123.75
2023-03-02T00:10:30.227Z,123.75
2023-03-02T00:11:30.223Z,123.75
2023-03-02T00:12:30.201Z,123.75
2023-03-02T00:13:30.258Z,123.75
2023-03-02T00:14:30.192Z,123.75
2023-03-02T00:15:30.232Z,123.75
2023-03-02T00:16:30.679Z,123.75
2023-03-02T00:17:30.189Z,123.75
2023-03-02T00:18:30.220Z,123.75
2023-03-02T00:19:30.149Z,123.75
2023-03-02T00:20:30.166Z,123.75
2023-03-02T00:21:30.142Z,123.75
2023-03-02T00:22:30.151Z,123.75
2023-03-02T00:23:30.080Z,123.75
2023-03-02T00:24:30.093Z,123.75
2023-03-02T00:25:30.053Z,123.75
2023-03-02T00:26:30.702Z,123.75
2023-03-02T00:27:30.089Z,123.75
2023-03-02T00:28:30.027Z,123.75
2023-03-02T00:29:30.024Z,123.75
2023-03-02T00:30:30.019Z,123.75
2023-03-02T00:31:30.101Z,123.75
2023-03-02T00:32:30.077Z,123.75
2023-03-02T00:33:29.995Z,123.75
2023-03-02T00:34:29.990Z,123.75
2023-03-02T00:35:29.978Z,123.75
2023-03-02T00:36:29.972Z,123.75
2023-03-02T00:37:29.954Z,123.75
2023-03-02T00:38:29.936Z,123.75
2023-03-02T00:39:29.922Z,123.75
2023-03-02T00:40:29.925Z,123.75
2023-03-02T00:41:29.897Z,123.75
2023-03-02T00:42:29.914Z,123.75
2023-03-02T00:43:29.872Z,123.75
2023-03-02T00:44:29.876Z,123.75
2023-03-02T00:45:29.858Z,123.75
2023-03-02T00:46:29.989Z,123.75
2023-03-02T00:47:29.931Z,123.75
2023-03-02T00:48:29.842Z,123.75
2023-03-02T00:49:29.816Z,123.75
2023-03-02T00:50:29.814Z,123.75
2023-03-02T00:51:29.815Z,123.75
2023-03-02T00:52:29.805Z,123.75
2023-03-02T00:53:29.775Z,123.75
2023-03-02T00:54:29.763Z,123.75
2023-03-02T00:55:29.768Z,123.75
2023-03-02T00:56:30.359Z,123.75
2023-03-02T00:57:29.757Z,123.75
2023-03-02T00:58:29.746Z,123.75
2023-03-02T00:59:29.707Z,123.75
2023-03-02T01:00:29.719Z,123.75
2023-03-02T01:01:29.722Z,123.75
2023-03-02T01:02:29.925Z,123.75
2023-03-02T01:03:29.703Z,123.75
2023-03-02T01:04:29.754Z,123.75
2023-03-02T01:05:29.695Z,123.75
2023-03-02T01:06:29.732Z,123.75
2023-03-02T01:07:29.693Z,123.75
2023-03-02T01:08:29.691Z,123.75
2023-03-02T01:09:29.609Z,123.75
2023-03-02T01:10:29.663Z,123.75
2023-03-02T01:11:29.602Z,123.75
2023-03-02T01:12:29.582Z,123.75
2023-03-02T01:13:29.613Z,123.75
2023-03-02T01:14:29.570Z,123.75
2023-03-02T01:15:29.548Z,123.75
2023-03-02T01:16:29.780Z,123.75
2023-03-02T01:17:29.561Z,123.75
2023-03-02T01:18:29.553Z,123.75
2023-03-02T01:19:29.505Z,123.75
2023-03-02T01:20:29.579Z,123.75
2023-03-02T01:21:29.512Z,123.75
2023-03-02T01:22:29.501Z,123.75
2023-03-02T01:23:29.494Z,123.75
2023-03-02T01:24:29.472Z,123.75
2023-03-02T01:25:29.461Z,123.75
2023-03-02T01:26:29.864Z,123.75
2023-03-02T01:27:29.427Z,123.75
2023-03-02T01:28:29.440Z,123.75
2023-03-02T01:29:29.435Z,123.75
2023-03-02T01:30:29.405Z,123.75
2023-03-02T01:31:29.459Z,123.75
2023-03-02T01:32:29.444Z,123.75
2023-03-02T01:33:29.410Z,123.75
2023-03-02T01:34:29.368Z,123.75
2023-03-02T01:35:29.407Z,123.75
2023-03-02T01:36:29.365Z,123.75
2023-03-02T01:37:29.355Z,123.75
2023-03-02T01:38:29.364Z,123.75
2023-03-02T01:39:29.350Z,123.75
2023-03-02T01:40:29.350Z,123.75
2023-03-02T01:41:29.300Z,123.75
2023-03-02T01:42:29.293Z,123.75
2023-03-02T01:43:29.272Z,123.75
2023-03-02T01:44:29.289Z,123.75
2023-03-02T01:45:29.405Z,123.75
2023-03-02T01:46:29.286Z,123.75
2023-03-02T01:47:29.252Z,123.75
2023-03-02T01:48:29.228Z,123.75
2023-03-02T01:49:29.240Z,123.75
2023-03-02T01:50:29.232Z,123.75
2023-03-02T01:51:29.180Z,123.75
2023-03-02T01:52:29.176Z,123.75
2023-03-02T01:53:29.175Z,123.75
2023-03-02T01:54:29.207Z,123.75
2023-03-02T01:55:29.200Z,123.75
2023-03-02T01:56:29.157Z,123.75
2023-03-02T01:57:29.116Z,123.75
2023-03-02T01:58:29.173Z,123.75
2023-03-02T01:59:29.125Z,123.75
2023-03-02T02:00:29.101Z,123.75
2023-03-02T02:01:29.154Z,123.75
2023-03-02T02:02:29.089Z,123.75
2023-03-02T02:03:29.063Z,123.75
2023-03-02T02:04:29.060Z,123.75
2023-03-02T02:05:29.056Z,123.75
2023-03-02T02:06:29.048Z,123.75
2023-03-02T02:07:29.016Z,123.75
2023-03-02T02:08:29.329Z,123.75
2023-03-02T02:09:29.028Z,123.75
2023-03-02T02:10:29.002Z,123.75
2023-03-02T02:11:28.992Z,123.75
2023-03-02T02:12:28.970Z,123.75
2023-03-02T02:13:28.974Z,123.75
2023-03-02T02:14:29.010Z,123.75
2023-03-02T02:15:28.942Z,123.75
2023-03-02T02:16:29.016Z,123.75
2023-03-02T02:17:28.950Z,123.75
2023-03-02T02:18:28.924Z,123.75
2023-03-02T02:19:28.902Z,123.75
2023-03-02T02:20:28.914Z,123.75
2023-03-02T02:21:28.916Z,123.75
2023-03-02T02:22:28.882Z,123.75
2023-03-02T02:23:28.854Z,123.75
2023-03-02T02:24:28.859Z,123.75
2023-03-02T02:25:28.869Z,123.75
2023-03-02T02:26:28.861Z,123.75
2023-03-02T02:27:28.805Z,123.75
2023-03-02T02:28:28.853Z,123.75
2023-03-02T02:29:28.824Z,123.75
2023-03-02T02:30:28.798Z,123.75
2023-03-02T02:31:28.821Z,123.75
2023-03-02T02:32:28.834Z,123.75
2023-03-02T02:33:28.773Z,123.75
2023-03-02T02:34:28.776Z,123.75
2023-03-02T02:35:28.791Z,123.75
2023-03-02T02:36:28.805Z,123.75
2023-03-02T02:37:28.776Z,123.75
2023-03-02T02:38:28.714Z,123.75
2023-03-02T02:39:28.712Z,123.75
2023-03-02T02:40:28.699Z,123.75
2023-03-02T02:41:28.696Z,123.75
2023-03-02T02:42:28.695Z,123.75
2023-03-02T02:43:28.722Z,123.75
2023-03-02T02:44:28.651Z,123.75
2023-03-02T02:45:28.716Z,123.75
2023-03-02T02:46:28.626Z,123.75
2023-03-02T02:47:29.349Z,123.75
2023-03-02T02:48:28.640Z,123.75
2023-03-02T02:49:28.623Z,123.75
2023-03-02T02:50:28.598Z,123.75
2023-03-02T02:51:28.577Z,123.75
2023-03-02T02:52:28.619Z,123.75
2023-03-02T02:53:28.612Z,123.75
2023-03-02T02:54:28.551Z,123.75
2023-03-02T02:55:28.550Z,123.75
2023-03-02T02:56:28.531Z,123.75
2023-03-02T02:57:28.526Z,123.75
2023-03-02T02:58:29.358Z,123.75
2023-03-02T02:59:28.478Z,123.75
2023-03-02T03:00:28.490Z,123.75
2023-03-02T03:01:28.545Z,123.75
2023-03-02T03:02:28.475Z,123.75
2023-03-02T03:03:28.445Z,123.75
2023-03-02T03:04:28.540Z,123.75
2023-03-02T03:05:28.431Z,123.75
2023-03-02T03:06:28.440Z,123.75
2023-03-02T03:07:28.409Z,123.75
2023-03-02T03:08:28.409Z,123.75
2023-03-02T03:09:28.447Z,123.75
2023-03-02T03:10:28.415Z,123.75
2023-03-02T03:11:28.393Z,123.75
2023-03-02T03:12:28.372Z,123.75
2023-03-02T03:13:28.975Z,123.75
2023-03-02T03:14:28.385Z,123.75
2023-03-02T03:15:28.338Z,123.75
2023-03-02T03:16:28.376Z,123.75
2023-03-02T03:17:28.310Z,123.75
2023-03-02T03:18:28.299Z,123.75
2023-03-02T03:19:28.310Z,123.75
2023-03-02T03:20:28.271Z,123.75
2023-03-02T03:21:28.288Z,123.75
2023-03-02T03:22:28.241Z,123.75
2023-03-02T03:23:28.256Z,123.75
2023-03-02T03:24:28.253Z,123.75
2023-03-02T03:25:28.224Z,123.75
2023-03-02T03:26:28.235Z,123.75
2023-03-02T03:27:28.216Z,123.75
2023-03-02T03:28:28.191Z,123.75
2023-03-02T03:29:28.190Z,123.75
2023-03-02T03:30:28.165Z,123.75
2023-03-02T03:31:28.178Z,123.75
2023-03-02T03:32:28.271Z,123.75
2023-03-02T03:33:28.141Z,123.75
2023-03-02T03:34:28.125Z,123.75
2023-03-02T03:35:28.186Z,123.75
2023-03-02T03:36:28.134Z,123.75
2023-03-02T03:37:28.127Z,123.75
2023-03-02T03:38:28.073Z,123.75
2023-03-02T03:39:28.087Z,123.75
2023-03-02T03:40:28.123Z,123.75
2023-03-02T03:41:28.136Z,123.75
2023-03-02T03:42:28.050Z,123.75
2023-03-02T03:43:28.042Z,123.75
2023-03-02T03:44:28.021Z,123.75
2023-03-02T03:45:30.285Z,123.75
2023-03-02T03:46:28.068Z,123.75
2023-03-02T03:47:28.025Z,123.75
2023-03-02T03:48:27.985Z,123.75
2023-03-02T03:49:28.045Z,123.75
2023-03-02T03:50:27.977Z,123.75
2023-03-02T03:51:27.952Z,123.75
2023-03-02T03:52:27.964Z,123.75
2023-03-02T03:53:27.936Z,123.75
2023-03-02T03:54:27.921Z,123.75
2023-03-02T03:55:27.935Z,123.75
2023-03-02T03:56:27.919Z,123.75
2023-03-02T03:57:27.892Z,123.75
2023-03-02T03:58:27.944Z,123.75
2023-03-02T03:59:27.884Z,123.75
2023-03-02T04:00:27.853Z,123.75
2023-03-02T04:01:27.941Z,123.75
2023-03-02T04:02:27.907Z,123.75
2023-03-02T04:03:28.060Z,123.75
2023-03-02T04:04:34.342Z,123.75
2023-03-02T04:05:28.518Z,123.75
2023-03-02T04:06:27.793Z,123.75
2023-03-02T04:07:27.867Z,123.75
2023-03-02T04:08:27.839Z,123.75
2023-03-02T04:09:27.794Z,123.75
2023-03-02T04:10:27.773Z,123.75
2023-03-02T04:11:27.791Z,123.75
2023-03-02T04:12:27.740Z,123.75
2023-03-02T04:13:27.779Z,123.75
2023-03-02T04:14:27.725Z,123.75
2023-03-02T04:15:27.780Z,123.75
2023-03-02T04:16:27.743Z,123.75
2023-03-02T04:17:27.741Z,123.75
2023-03-02T04:18:27.706Z,123.75
2023-03-02T04:19:27.734Z,123.75
2023-03-02T04:20:27.673Z,123.75
2023-03-02T04:21:27.699Z,123.75
2023-03-02T04:22:27.692Z,123.75
2023-03-02T04:23:27.670Z,123.75
2023-03-02T04:24:27.877Z,123.75
2023-03-02T04:25:27.648Z,123.75
2023-03-02T04:26:27.714Z,123.75
2023-03-02T04:27:27.990Z,123.75
2023-03-02T04:28:27.838Z,123.75
2023-03-02T04:29:27.811Z,123.75
2023-03-02T04:30:27.686Z,123.75
2023-03-02T04:31:27.712Z,123.75
2023-03-02T04:32:27.745Z,123.75
2023-03-02T04:33:27.730Z,123.75
2023-03-02T04:34:27.630Z,123.75
2023-03-02T04:35:27.699Z,123.75
2023-03-02T04:36:27.732Z,123.75
2023-03-02T04:37:27.706Z,123.75
2023-03-02T04:38:27.702Z,123.75
2023-03-02T04:39:27.666Z,123.75
2023-03-02T04:40:27.806Z,123.75
2023-03-02T04:41:27.511Z,123.75
2023-03-02T04:42:27.604Z,123.75
2023-03-02T04:43:27.977Z,123.75
2023-03-02T04:44:27.795Z,123.75
2023-03-02T04:45:27.615Z,123.75
2023-03-02T04:46:27.541Z,123.75
2023-03-02T04:47:27.446Z,123.75
2023-03-02T04:48:27.426Z,123.75
2023-03-02T04:49:27.637Z,123.75
2023-03-02T04:50:27.880Z,123.75
2023-03-02T04:51:28.816Z,123.75
2023-03-02T04:52:27.372Z,123.75
2023-03-02T04:53:27.516Z,123.75
2023-03-02T04:54:27.467Z,123.75
2023-03-02T04:55:27.327Z,123.75
2023-03-02T04:56:27.329Z,123.75
2023-03-02T04:57:27.326Z,123.75
2023-03-02T04:58:27.285Z,123.75
2023-03-02T04:59:27.319Z,123.75
2023-03-02T05:00:27.269Z,123.75
2023-03-02T05:01:27.327Z,123.75
2023-03-02T05:02:27.414Z,123.75
2023-03-02T05:03:27.259Z,123.75
2023-03-02T05:04:27.323Z,123.75
2023-03-02T05:05:27.224Z,123.75
2023-03-02T05:06:27.233Z,123.75
2023-03-02T05:07:27.225Z,123.75
2023-03-02T05:08:27.204Z,123.75
2023-03-02T05:09:27.453Z,123.75
2023-03-02T05:10:27.196Z,123.75
2023-03-02T05:11:27.194Z,123.75
2023-03-02T05:12:27.205Z,123.75
2023-03-02T05:13:27.152Z,123.75
2023-03-02T05:14:27.177Z,123.75
2023-03-02T05:15:27.137Z,123.75
2023-03-02T05:16:27.149Z,123.75
2023-03-02T05:17:27.100Z,123.75
2023-03-02T05:18:27.091Z,123.75
2023-03-02T05:19:27.133Z,123.75
2023-03-02T05:20:27.126Z,123.75
2023-03-02T05:21:27.133Z,123.75
2023-03-02T05:22:27.109Z,123.75
2023-03-02T05:23:27.180Z,123.75
2023-03-02T05:24:27.119Z,123.75
2023-03-02T05:25:27.045Z,123.75
2023-03-02T05:26:27.157Z,123.75
2023-03-02T05:27:27.024Z,123.75
2023-03-02T05:28:27.042Z,123.75
2023-03-02T05:29:27.140Z,123.75
2023-03-02T05:30:26.950Z,123.75
2023-03-02T05:31:26.977Z,123.75
2023-03-02T05:32:27.108Z,123.75
2023-03-02T05:33:27.116Z,123.75
2023-03-02T05:34:26.947Z,123.75
2023-03-02T05:35:27.059Z,123.75
2023-03-02T05:36:26.922Z,123.75
2023-03-02T05:37:27.106Z,123.75
2023-03-02T05:38:27.045Z,123.75
2023-03-02T05:39:26.866Z,123.75
2023-03-02T05:40:27.068Z,123.75
2023-03-02T05:41:26.935Z,123.75
2023-03-02T05:42:26.876Z,123.75
2023-03-02T05:43:26.815Z,123.75
2023-03-02T05:44:26.818Z,123.75
2023-03-02T05:45:26.833Z,123.75
2023-03-02T05:46:26.863Z,123.75
2023-03-02T05:47:26.757Z,123.75
2023-03-02T05:48:26.815Z,123.75
2023-03-02T05:49:26.782Z,123.75
2023-03-02T05:50:26.728Z,123.75
2023-03-02T05:51:26.721Z,123.75
2023-03-02T05:52:26.670Z,123.75
2023-03-02T05:53:26.704Z,123.75
2023-03-02T05:54:26.673Z,123.75
2023-03-02T05:55:26.708Z,123.75
2023-03-02T05:56:26.640Z,123.75
2023-03-02T05:57:26.636Z,123.75
2023-03-02T05:58:26.670Z,123.75
2023-03-02T05:59:26.638Z,123.75
2023-03-02T06:00:26.603Z,123.75
2023-03-02T06:01:26.614Z,123.75
2023-03-02T06:02:26.690Z,123.75
2023-03-02T06:03:26.675Z,123.75
2023-03-02T06:04:26.575Z,123.75
2023-03-02T06:05:26.621Z,123.75
2023-03-02T06:06:26.613Z,123.75
2023-03-02T06:07:26.580Z,123.75
2023-03-02T06:08:26.610Z,123.75
2023-03-02T06:09:26.553Z,123.75
2023-03-02T06:10:27.208Z,123.75
2023-03-02T06:11:26.676Z,123.75
2023-03-02T06:12:26.517Z,123.75
2023-03-02T06:13:26.534Z,123.75
2023-03-02T06:14:26.484Z,123.75
2023-03-02T06:15:26.455Z,123.75
2023-03-02T06:16:26.655Z,123.75
2023-03-02T06:17:26.464Z,123.75
2023-03-02T06:18:26.473Z,123.75
2023-03-02T06:19:26.679Z,123.75
2023-03-02T06:20:26.445Z,123.75
2023-03-02T06:21:26.483Z,123.75
2023-03-02T06:22:26.420Z,123.75
2023-03-02T06:23:26.419Z,123.75
2023-03-02T06:24:26.401Z,123.75
2023-03-02T06:25:26.390Z,123.75
2023-03-02T06:26:26.363Z,123.75
2023-03-02T06:27:26.423Z,123.75
2023-03-02T06:28:26.370Z,123.75
2023-03-02T06:29:26.370Z,123.75
2023-03-02T06:30:26.505Z,123.75
2023-03-02T06:31:26.463Z,123.75
2023-03-02T06:32:26.430Z,123.75
2023-03-02T06:33:26.577Z,123.75
2023-03-02T06:34:26.317Z,123.75
2023-03-02T06:35:26.623Z,123.75
2023-03-02T06:40:04.402Z,123.75
2023-03-02T06:41:13.114Z,123.75
2023-03-02T06:42:05.295Z,123.75
2023-03-02T06:43:05.327Z,123.75
2023-03-02T06:44:05.317Z,123.75
2023-03-02T06:45:05.328Z,123.75
2023-03-02T06:46:05.370Z,123.75
2023-03-02T06:47:05.274Z,123.75
2023-03-02T06:48:05.417Z,123.75
2023-03-02T06:49:05.327Z,123.75
2023-03-02T06:50:05.245Z,123.75
2023-03-02T06:51:05.226Z,123.75
2023-03-02T06:52:05.244Z,123.75
2023-03-02T06:53:05.206Z,123.75
2023-03-02T06:54:05.176Z,123.75
2023-03-02T06:55:05.247Z,123.75
2023-03-02T06:56:05.496Z,123.75
2023-03-02T06:57:05.512Z,123.75
2023-03-02T06:58:05.603Z,123.75
2023-03-02T06:59:05.168Z,123.75
2023-03-02T07:00:05.349Z,123.75
2023-03-02T07:01:05.527Z,123.75
2023-03-02T07:02:05.140Z,123.75
2023-03-02T07:03:05.282Z,123.75
2023-03-02T07:04:05.221Z,123.75
2023-03-02T07:05:05.446Z,123.75
2023-03-02T07:06:05.165Z,123.75
2023-03-02T07:07:05.070Z,123.75
2023-03-02T07:08:05.627Z,123.75
2023-03-02T07:09:05.050Z,123.75
2023-03-02T07:10:05.050Z,123.75
2023-03-02T07:11:05.022Z,123.75
2023-03-02T07:12:05.043Z,123.75
2023-03-02T07:13:06.421Z,123.75
2023-03-02T07:14:04.986Z,123.75
2023-03-02T07:15:04.980Z,123.75
2023-03-02T07:16:04.977Z,123.75
2023-03-02T07:17:05.083Z,123.75
2023-03-02T07:18:04.979Z,123.75
2023-03-02T07:19:05.134Z,123.75
2023-03-02T07:20:05.008Z,123.75
2023-03-02T07:21:04.940Z,123.75
2023-03-02T07:22:05.739Z,123.75
2023-03-02T07:23:04.913Z,123.75
2023-03-02T07:24:04.891Z,123.75
2023-03-02T07:25:04.882Z,123.75
2023-03-02T07:26:04.881Z,123.75
2023-03-02T07:27:04.936Z,123.75
2023-03-02T07:28:04.911Z,123.75
2023-03-02T07:29:04.880Z,123.75
2023-03-02T07:30:04.842Z,123.75
2023-03-02T07:31:04.914Z,123.75
2023-03-02T07:32:04.916Z,123.75
2023-03-02T07:33:04.839Z,123.75
2023-03-02T07:34:04.868Z,123.75
2023-03-02T07:35:04.878Z,123.75
2023-03-02T07:36:04.862Z,123.75
2023-03-02T07:37:04.891Z,123.75
2023-03-02T07:38:05.769Z,123.75
2023-03-02T07:39:04.784Z,123.75
2023-03-02T07:40:04.754Z,123.75
2023-03-02T07:41:04.731Z,123.75
2023-03-02T07:42:05.010Z,123.75
2023-03-02T07:43:04.822Z,123.75
2023-03-02T07:44:04.793Z,123.75
2023-03-02T07:45:04.750Z,123.75
2023-03-02T07:46:04.788Z,123.75
2023-03-02T07:47:04.677Z,123.75
2023-03-02T07:48:04.794Z,123.75
2023-03-02T07:49:04.634Z,123.75
2023-03-02T07:50:04.621Z,123.75
2023-03-02T07:51:04.702Z,123.75
2023-03-02T07:52:04.625Z,123.75
2023-03-02T07:53:04.822Z,123.75
2023-03-02T07:54:04.610Z,123.75
2023-03-02T07:55:04.592Z,123.75
2023-03-02T07:56:04.590Z,123.75
2023-03-02T07:57:04.654Z,123.75
2023-03-02T07:58:04.588Z,123.75
2023-03-02T07:59:04.593Z,123.75
2023-03-02T08:00:04.545Z,123.75
2023-03-02T08:01:04.533Z,123.75
2023-03-02T08:02:04.578Z,123.75
2023-03-02T08:03:04.616Z,123.75
2023-03-02T08:04:04.510Z,123.75
2023-03-02T08:05:04.503Z,123.75
2023-03-02T08:06:04.520Z,123.75
2023-03-02T08:07:04.494Z,123.75
2023-03-02T08:08:04.464Z,123.75
2023-03-02T08:09:04.454Z,123.75
2023-03-02T08:10:04.442Z,123.75
2023-03-02T08:11:04.477Z,123.75
2023-03-02T08:12:04.467Z,123.75
2023-03-02T08:13:04.429Z,123.75
2023-03-02T08:14:04.403Z,123.75
2023-03-02T08:15:05.089Z,123.75
2023-03-02T08:16:04.494Z,123.75
2023-03-02T08:17:04.416Z,123.75
2023-03-02T08:18:04.486Z,123.75
2023-03-02T08:19:04.507Z,123.75
2023-03-02T08:20:04.388Z,123.75
2023-03-02T08:21:04.626Z,123.75
2023-03-02T08:22:04.505Z,123.75
2023-03-02T08:23:04.311Z,123.75
2023-03-02T08:24:05.640Z,123.75
2023-03-02T08:25:04.831Z,123.75
2023-03-02T08:26:04.396Z,123.75
2023-03-02T08:27:07.148Z,123.75
2023-03-02T08:28:04.250Z,123.75
2023-03-02T08:29:04.264Z,123.75
2023-03-02T08:30:04.273Z,123.75
2023-03-02T08:31:04.271Z,123.75
2023-03-02T08:32:04.451Z,123.75
2023-03-02T08:33:06.933Z,123.75
2023-03-02T08:34:04.404Z,123.75
2023-03-02T08:35:04.334Z,123.75
2023-03-02T08:36:04.360Z,123.75
2023-03-02T08:37:04.300Z,123.75
2023-03-02T08:38:04.178Z,123.75
2023-03-02T08:39:04.158Z,123.75
2023-03-02T08:40:04.205Z,123.75
2023-03-02T08:41:04.107Z,123.75
2023-03-02T08:42:05.589Z,123.75
2023-03-02T08:43:04.113Z,123.75
2023-03-02T08:44:04.148Z,123.75
2023-03-02T08:45:04.080Z,123.75
2023-03-02T08:46:04.135Z,123.75
2023-03-02T08:47:04.082Z,123.75
2023-03-02T08:48:04.080Z,123.75
2023-03-02T08:49:04.060Z,123.75
2023-03-02T08:50:04.136Z,123.75
2023-03-02T08:51:04.021Z,123.75
2023-03-02T08:52:04.019Z,123.75
2023-03-02T08:53:04.001Z,123.75
2023-03-02T08:54:04.004Z,123.75
2023-03-02T08:55:04.511Z,123.75
2023-03-02T08:56:03.997Z,123.75
2023-03-02T08:57:03.972Z,123.75
2023-03-02T08:58:03.959Z,123.75
2023-03-02T08:59:03.930Z,123.75
2023-03-02T09:00:03.930Z,123.75
2023-03-02T09:01:03.998Z,123.75
2023-03-02T09:02:03.906Z,123.75
2023-03-02T09:03:03.900Z,123.75
2023-03-02T09:04:03.923Z,123.75
2023-03-02T09:05:03.874Z,123.75
2023-03-02T09:06:03.884Z,123.75
2023-03-02T09:07:03.854Z,123.75
2023-03-02T09:08:03.944Z,123.75
2023-03-02T09:09:03.864Z,123.75
2023-03-02T09:10:03.817Z,123.75
2023-03-02T09:11:03.854Z,123.75
2023-03-02T09:12:03.825Z,123.75
2023-03-02T09:13:03.803Z,123.75
2023-03-02T09:14:03.781Z,123.75
2023-03-02T09:15:03.776Z,123.75
2023-03-02T09:16:03.758Z,123.75
2023-03-02T09:17:03.780Z,123.75
2023-03-02T09:18:03.775Z,123.75
2023-03-02T09:19:03.751Z,123.75
2023-03-02T09:20:03.860Z,123.75
2023-03-02T09:21:03.774Z,123.75
2023-03-02T09:22:04.016Z,123.75
2023-03-02T09:23:03.687Z,123.75
2023-03-02T09:24:03.737Z,123.75
2023-03-02T09:25:03.721Z,123.75
2023-03-02T09:26:03.677Z,123.75
2023-03-02T09:27:03.678Z,123.75
2023-03-02T09:28:03.645Z,123.75
2023-03-02T09:29:03.647Z,123.75
2023-03-02T09:30:03.653Z,123.75
2023-03-02T09:31:03.607Z,123.75
2023-03-02T09:32:03.829Z,123.75
2023-03-02T09:33:03.694Z,123.75
2023-03-02T09:34:03.648Z,123.75
2023-03-02T09:35:03.590Z,123.75
2023-03-02T09:36:03.574Z,123.75
2023-03-02T09:37:03.552Z,123.75
2023-03-02T09:38:03.597Z,123.75
2023-03-02T09:39:03.560Z,123.75
2023-03-02T09:40:03.532Z,123.75
2023-03-02T09:41:03.506Z,123.75
2023-03-02T09:42:03.533Z,123.75
2023-03-02T09:43:03.514Z,123.75
2023-03-02T09:44:03.498Z,123.75
2023-03-02T09:45:03.658Z,123.75
2023-03-02T09:46:03.526Z,123.75
2023-03-02T09:47:03.472Z,123.75
2023-03-02T09:48:03.568Z,123.75
2023-03-02T09:49:04.237Z,123.75
2023-03-02T09:50:03.423Z,123.75
2023-03-02T09:51:03.406Z,123.75
2023-03-02T09:52:03.470Z,123.75
2023-03-02T09:53:03.449Z,123.75
2023-03-02T09:54:03.444Z,123.75
2023-03-02T09:55:04.171Z,123.75
2023-03-02T09:56:03.524Z,123.75
2023-03-02T09:57:03.406Z,123.75
2023-03-02T09:58:03.326Z,123.75
2023-03-02T09:59:03.312Z,123.75
2023-03-02T10:00:12.899Z,123.75
2023-03-02T10:01:03.300Z,123.75
2023-03-02T10:02:03.324Z,123.75
2023-03-02T10:03:16.247Z,123.75
2023-03-02T10:04:03.442Z,123.75
2023-03-02T10:05:03.260Z,123.75
2023-03-02T10:06:03.266Z,123.75
2023-03-02T10:07:03.338Z,123.75
2023-03-02T10:08:03.268Z,123.75
2023-03-02T10:09:03.247Z,123.75
2023-03-02T10:10:03.202Z,123.75
2023-03-02T10:11:03.292Z,123.75
2023-03-02T10:12:03.183Z,123.75
2023-03-02T10:13:03.385Z,123.75
2023-03-02T10:14:03.177Z,123.75
2023-03-02T10:15:03.154Z,123.75
2023-03-02T10:16:03.205Z,123.75
2023-03-02T10:17:03.149Z,123.75
2023-03-02T10:18:03.187Z,123.75
2023-03-02T10:19:05.281Z,123.75
2023-03-02T10:20:03.128Z,123.75
2023-03-02T10:21:03.128Z,123.75
2023-03-02T10:22:03.143Z,123.75
2023-03-02T10:23:03.144Z,123.75
2023-03-02T10:24:03.087Z,123.75
2023-03-02T10:25:03.075Z,123.75
2023-03-02T10:26:03.058Z,123.75
2023-03-02T10:27:03.109Z,123.75
2023-03-02T10:28:03.074Z,123.75
2023-03-02T10:29:03.013Z,123.75
2023-03-02T10:30:03.025Z,123.75
2023-03-02T10:31:05.104Z,123.75
2023-03-02T10:32:03.088Z,123.75
2023-03-02T10:33:02.963Z,123.75
2023-03-02T10:34:02.952Z,123.75
2023-03-02T10:35:02.961Z,123.75
2023-03-02T10:36:02.932Z,123.75
2023-03-02T10:37:02.992Z,123.75
2023-03-02T10:38:03.019Z,123.75
2023-03-02T10:39:02.908Z,123.75
2023-03-02T10:40:02.917Z,123.75
2023-03-02T10:41:03.712Z,123.75
2023-03-02T10:42:02.883Z,123.75
2023-03-02T10:43:02.903Z,123.75
2023-03-02T10:44:03.616Z,123.75
2023-03-02T10:45:02.883Z,123.75
2023-03-02T10:46:02.893Z,123.75
2023-03-02T10:47:02.827Z,123.75
2023-03-02T10:48:02.822Z,123.75
2023-03-02T10:49:02.807Z,123.75
2023-03-02T10:50:02.802Z,123.75
2023-03-02T10:51:02.776Z,123.75
2023-03-02T10:52:02.765Z,123.75
2023-03-02T10:53:05.185Z,123.75
2023-03-02T10:54:02.847Z,123.75
2023-03-02T10:55:02.846Z,123.75
2023-03-02T10:56:02.728Z,123.75
2023-03-02T10:57:02.722Z,123.75
2023-03-02T10:58:02.719Z,123.75
2023-03-02T10:59:02.760Z,123.75
2023-03-02T11:00:02.699Z,123.75
2023-03-02T11:01:02.707Z,123.75
2023-03-02T11:02:02.732Z,123.75
2023-03-02T11:03:02.656Z,123.75
2023-03-02T11:04:03.190Z,123.75
2023-03-02T11:05:02.751Z,123.75
2023-03-02T11:06:02.617Z,123.75
2023-03-02T11:07:02.606Z,123.75
2023-03-02T11:08:02.754Z,123.75
2023-03-02T11:09:02.608Z,123.75
2023-03-02T11:10:02.673Z,123.75
2023-03-02T11:11:02.605Z,123.75
2023-03-02T11:12:02.686Z,123.75
2023-03-02T11:13:02.640Z,123.75
2023-03-02T11:14:02.613Z,123.75
2023-03-02T11:15:02.526Z,123.75
2023-03-02T11:16:02.624Z,123.75
2023-03-02T11:17:03.541Z,123.75
2023-03-02T11:18:02.551Z,123.75
2023-03-02T11:19:02.597Z,123.75
2023-03-02T11:20:02.526Z,123.75
2023-03-02T11:21:02.486Z,123.75
2023-03-02T11:22:02.490Z,123.75
2023-03-02T11:23:02.456Z,123.75
2023-03-02T11:24:02.577Z,123.75
2023-03-02T11:25:02.473Z,123.75
2023-03-02T11:26:02.416Z,123.75
2023-03-02T11:27:02.434Z,123.75
2023-03-02T11:28:02.406Z,123.75
2023-03-02T11:29:02.433Z,123.75
2023-03-02T11:30:02.453Z,123.75
2023-03-02T11:31:02.383Z,123.75
2023-03-02T11:32:02.419Z,123.75
2023-03-02T11:33:02.370Z,123.75
2023-03-02T11:34:11.689Z,123.75
2023-03-02T11:35:02.352Z,123.75
2023-03-02T11:36:02.340Z,123.75
2023-03-02T11:37:02.310Z,123.75
2023-03-02T11:38:02.510Z,123.75
2023-03-02T11:39:02.270Z,123.75
2023-03-02T11:40:02.318Z,123.75
2023-03-02T11:41:02.384Z,123.75
2023-03-02T11:42:02.341Z,123.75
2023-03-02T11:43:02.300Z,123.75
2023-03-02T11:44:02.267Z,123.75
2023-03-02T11:45:02.280Z,123.75
2023-03-02T11:46:03.559Z,123.75
2023-03-02T11:47:02.325Z,123.75
2023-03-02T11:48:03.857Z,123.75
2023-03-02T11:49:02.192Z,123.75
2023-03-02T11:50:02.196Z,123.75
2023-03-02T11:51:02.228Z,123.75
2023-03-02T11:52:02.536Z,123.75
2023-03-02T11:53:02.156Z,123.75
2023-03-02T11:54:02.245Z,123.75
2023-03-02T11:55:02.168Z,123.75
2023-03-02T11:56:02.178Z,123.75
2023-03-02T11:57:02.127Z,123.75
2023-03-02T11:59:02.180Z,123.75
2023-03-02T12:00:02.188Z,123.75
2023-03-02T12:01:02.103Z,123.75
2023-03-02T12:02:02.120Z,123.75
2023-03-02T12:03:02.072Z,123.75
2023-03-02T12:04:02.058Z,123.75
2023-03-02T12:05:02.084Z,123.75
2023-03-02T12:06:02.051Z,123.75
2023-03-02T12:07:02.021Z,123.75
2023-03-02T12:08:02.121Z,123.75
2023-03-02T12:09:02.072Z,123.75
2023-03-02T12:10:01.985Z,123.75
2023-03-02T12:11:53.297Z,292.50
2023-03-02T12:12:54.283Z,140.62
2023-03-02T12:13:54.282Z,168.75
2023-03-02T12:14:54.245Z,540.00
2023-03-02T12:15:54.347Z,697.50
2023-03-02T12:16:54.383Z,731.25
2023-03-02T12:17:54.259Z,798.75
2023-03-02T12:18:54.212Z,838.12
2023-03-02T12:19:54.209Z,652.50
2023-03-02T12:20:54.191Z,410.62
2023-03-02T12:21:54.408Z,421.88
2023-03-02T12:22:54.226Z,483.75
2023-03-02T12:23:54.191Z,630.00
2023-03-02T12:24:54.146Z,635.62
2023-03-02T12:25:54.154Z,635.62
2023-03-02T12:26:54.129Z,748.12
2023-03-02T12:27:54.252Z,641.25
2023-03-02T12:28:54.117Z,613.12
2023-03-02T12:29:54.111Z,641.25
2023-03-02T12:30:54.086Z,798.75
2023-03-02T12:31:54.313Z,562.50
2023-03-02T12:32:54.088Z,180.00
2023-03-02T12:33:54.072Z,219.38